createdAt,value
2018-09-09T00:04:31.954Z,7.40
2018-09-09T00:09:40.477Z,6.87
2018-09-09T00:14:43.516Z,5.87
2018-09-09T00:19:46.544Z,6.20
2018-09-09T00:24:49.554Z,6.60
2018-09-09T00:29:52.556Z,6.50
2018-09-09T00:34:55.602Z,6.60
2018-09-09T00:39:58.611Z,6.83
2018-09-09T00:45:01.711Z,6.70
2018-09-09T00:50:10.296Z,6.57
2018-09-09T00:55:14.535Z,5.67
2018-09-09T01:00:21.962Z,6.30
2018-09-09T01:05:25.075Z,5.23
2018-09-09T01:10:28.182Z,5.20
2018-09-09T01:15:31.299Z,4.90
2018-09-09T01:20:34.315Z,5.07
2018-09-09T01:25:37.406Z,5.53
2018-09-09T01:30:40.507Z,4.90
2018-09-09T01:35:43.723Z,4.50
2018-09-09T01:40:46.719Z,4.83
2018-09-09T01:45:49.815Z,4.80
2018-09-09T01:50:52.930Z,4.93
2018-09-09T01:55:56.035Z,4.90
2018-09-09T02:00:59.040Z,4.30
2018-09-09T02:06:02.105Z,4.70
2018-09-09T02:11:05.143Z,5.20
2018-09-09T02:16:08.451Z,4.47
2018-09-09T02:21:11.443Z,4.10
2018-09-09T02:26:14.526Z,4.70
2018-09-09T02:31:17.555Z,4.20
2018-09-09T02:36:20.676Z,4.17
2018-09-09T02:41:23.675Z,4.50
2018-09-09T02:46:26.658Z,3.97
2018-09-09T02:51:29.659Z,4.20
2018-09-09T02:56:32.675Z,4.33
2018-09-09T03:01:35.667Z,4.03
2018-09-09T03:06:38.654Z,4.90
2018-09-09T03:11:41.694Z,4.17
2018-09-09T03:16:44.690Z,4.23
2018-09-09T03:21:47.692Z,3.77
2018-09-09T03:26:50.770Z,4.57
2018-09-09T03:31:53.778Z,4.20
2018-09-09T03:36:56.758Z,4.03
2018-09-09T03:41:59.794Z,3.90
2018-09-09T03:47:02.910Z,3.90
2018-09-09T03:52:05.907Z,3.93
2018-09-09T03:57:08.914Z,4.63
2018-09-09T04:02:12.016Z,4.13
2018-09-09T04:07:15.019Z,4.03
2018-09-09T04:12:18.126Z,3.53
2018-09-09T04:17:21.163Z,3.43
2018-09-09T04:22:24.164Z,3.73
2018-09-09T04:27:27.238Z,3.90
2018-09-09T04:32:30.276Z,3.70
2018-09-09T04:37:33.270Z,3.70
2018-09-09T04:42:36.269Z,3.73
2018-09-09T04:47:39.447Z,3.33
2018-09-09T04:52:42.674Z,3.77
2018-09-09T04:57:45.762Z,4.10
2018-09-09T05:02:48.802Z,4.17
2018-09-09T05:07:51.832Z,3.60
2018-09-09T05:12:54.838Z,3.93
2018-09-09T05:17:57.846Z,3.90
2018-09-09T05:23:00.886Z,3.97
2018-09-09T05:28:03.935Z,4.13
2018-09-09T05:33:06.943Z,4.37
2018-09-09T05:38:09.949Z,4.20
2018-09-09T05:43:13.103Z,5.23
2018-09-09T05:48:16.202Z,4.57
2018-09-09T05:53:19.326Z,4.13
2018-09-09T05:58:22.350Z,4.60
2018-09-09T06:03:25.360Z,4.60
2018-09-09T06:08:28.368Z,4.67
2018-09-09T06:13:31.349Z,4.87
2018-09-09T06:18:34.357Z,4.80
2018-09-09T06:23:37.392Z,4.70
2018-09-09T06:28:40.424Z,5.10
2018-09-09T06:33:43.478Z,4.77
2018-09-09T06:38:46.466Z,4.50
2018-09-09T06:43:49.466Z,5.10
2018-09-09T06:48:52.466Z,5.90
2018-09-09T06:53:55.500Z,4.83
2018-09-09T06:58:58.539Z,4.77
2018-09-09T07:04:01.906Z,4.70
2018-09-09T07:09:06.322Z,4.43
2018-09-09T07:14:09.342Z,3.80
2018-09-09T07:19:12.479Z,4.70
2018-09-09T07:24:15.445Z,4.20
2018-09-09T07:29:18.423Z,4.50
2018-09-09T07:34:21.464Z,3.87
2018-09-09T07:39:24.503Z,4.10
2018-09-09T07:44:27.502Z,4.60
2018-09-09T07:49:30.515Z,3.20
2018-09-09T07:54:33.515Z,4.43
2018-09-09T07:59:36.522Z,3.17
2018-09-09T08:04:39.523Z,3.80
2018-09-09T08:09:42.554Z,4.17
2018-09-09T08:14:45.622Z,3.40
2018-09-09T08:19:48.671Z,2.80
2018-09-09T08:24:51.686Z,4.00
2018-09-09T08:29:54.739Z,3.10
2018-09-09T08:34:57.735Z,3.20
2018-09-09T08:40:00.730Z,3.93
2018-09-09T08:45:03.936Z,3.03
2018-09-09T08:50:06.934Z,3.77
2018-09-09T08:55:09.934Z,3.20
2018-09-09T09:00:13.031Z,2.67
2018-09-09T09:05:16.299Z,2.47
2018-09-09T09:10:19.449Z,2.77
2018-09-09T09:15:22.543Z,2.43
2018-09-09T09:20:25.670Z,2.97
2018-09-09T09:25:28.838Z,2.90
2018-09-09T09:30:32.443Z,2.50
2018-09-09T09:35:54.054Z,2.20
2018-09-09T09:40:57.066Z,2.47
2018-09-09T09:46:00.135Z,2.60
2018-09-09T09:51:03.144Z,2.13
2018-09-09T09:56:07.071Z,2.00
2018-09-09T10:01:10.099Z,1.80
2018-09-09T10:06:13.175Z,2.23
2018-09-09T10:11:16.190Z,1.93
2018-09-09T10:16:19.230Z,1.57
2018-09-09T10:21:22.230Z,2.30
2018-09-09T10:26:25.235Z,2.13
2018-09-09T10:31:28.243Z,2.20
2018-09-09T10:36:31.242Z,1.53
2018-09-09T10:41:34.302Z,1.47
2018-09-09T10:46:37.341Z,1.97
2018-09-09T10:51:40.322Z,1.90
2018-09-09T10:56:43.410Z,2.23
2018-09-09T11:01:46.420Z,2.10
2018-09-09T11:06:49.535Z,1.70
2018-09-09T11:11:52.542Z,1.77
2018-09-09T11:16:55.558Z,1.53
2018-09-09T11:21:58.579Z,1.73
2018-09-09T11:27:01.639Z,1.50
2018-09-09T11:32:04.682Z,2.00
2018-09-09T11:37:07.752Z,2.30
2018-09-09T11:42:11.051Z,2.30
2018-09-09T11:47:14.113Z,1.67
2018-09-09T11:52:17.222Z,1.90
2018-09-09T11:57:20.211Z,1.70
2018-09-09T12:02:23.226Z,1.60
2018-09-09T12:07:26.255Z,1.30
2018-09-09T12:12:29.262Z,1.90
2018-09-09T12:17:32.763Z,1.27
2018-09-09T12:22:35.802Z,1.53
2018-09-09T12:27:38.810Z,1.33
2018-09-09T12:32:41.881Z,1.37
2018-09-09T12:37:44.945Z,1.50
2018-09-09T12:42:52.259Z,1.50
2018-09-09T12:48:00.822Z,1.07
2018-09-09T12:53:03.856Z,1.73
2018-09-09T12:58:06.949Z,1.40
2018-09-09T13:03:10.039Z,1.20
2018-09-09T13:08:13.045Z,1.73
2018-09-09T13:13:18.043Z,1.30
2018-09-09T13:18:21.063Z,1.60
2018-09-09T13:23:24.127Z,1.37
2018-09-09T13:28:27.210Z,1.40
2018-09-09T13:33:30.316Z,1.40
2018-09-09T13:38:33.331Z,1.20
2018-09-09T13:43:36.427Z,1.50
2018-09-09T13:48:39.483Z,1.70
2018-09-09T13:53:42.514Z,1.23
2018-09-09T13:58:45.512Z,1.33
2018-09-09T14:03:48.546Z,2.00
2018-09-09T14:08:51.552Z,1.43
2018-09-09T14:13:54.596Z,1.93
2018-09-09T14:18:57.606Z,2.27
2018-09-09T14:24:00.670Z,1.53
2018-09-09T14:29:03.688Z,1.63
2018-09-09T14:34:06.756Z,1.40
2018-09-09T14:39:10.413Z,1.40
2018-09-09T14:44:13.398Z,1.57
2018-09-09T14:49:16.406Z,1.77
2018-09-09T14:54:19.547Z,2.10
2018-09-09T14:59:22.540Z,1.70
2018-09-09T15:04:25.526Z,1.60
2018-09-09T15:09:28.520Z,1.37
2018-09-09T15:14:31.610Z,1.20
2018-09-09T15:19:34.611Z,0.97
2018-09-09T15:24:37.644Z,1.20
2018-09-09T15:29:40.666Z,2.90
2018-09-09T15:34:43.679Z,1.13
2018-09-09T15:39:46.719Z,1.40
2018-09-09T15:44:49.779Z,1.13
2018-09-09T15:49:52.822Z,1.23
2018-09-09T15:54:55.859Z,1.40
2018-09-09T15:59:58.928Z,1.10
2018-09-09T16:05:02.015Z,1.00
2018-09-09T16:10:05.190Z,1.00
2018-09-09T16:15:08.200Z,1.93
2018-09-09T16:20:11.211Z,1.20
2018-09-09T16:25:14.724Z,1.20
2018-09-09T16:30:17.738Z,1.33
2018-09-09T16:35:20.850Z,1.30
2018-09-09T16:40:23.850Z,1.10
2018-09-09T16:45:26.887Z,1.50
2018-09-09T16:50:29.917Z,1.03
2018-09-09T16:55:32.975Z,1.60
2018-09-09T17:00:36.131Z,1.80
2018-09-09T17:05:39.183Z,1.87
2018-09-09T17:10:42.208Z,2.40
2018-09-09T17:15:45.305Z,1.90
2018-09-09T17:20:48.299Z,1.43
2018-09-09T17:25:51.502Z,1.50
2018-09-09T17:30:54.527Z,1.80
2018-09-09T17:35:57.603Z,2.30
2018-09-09T17:41:00.620Z,2.30
2018-09-09T17:46:03.779Z,2.20
2018-09-09T17:51:07.001Z,2.57
2018-09-09T17:56:10.401Z,1.53
2018-09-09T18:01:13.634Z,1.97
2018-09-09T18:06:16.751Z,1.77
2018-09-09T18:11:19.751Z,2.03
2018-09-09T18:16:22.992Z,2.30
2018-09-09T18:21:26.933Z,2.40
2018-09-09T18:26:29.970Z,2.47
2018-09-09T18:31:33.543Z,2.87
2018-09-09T18:36:36.601Z,3.20
2018-09-09T18:41:39.674Z,2.70
2018-09-09T18:46:42.712Z,2.77
2018-09-09T18:51:45.706Z,3.10
2018-09-09T18:56:48.736Z,3.30
2018-09-09T19:01:51.742Z,3.27
2018-09-09T19:06:54.749Z,2.50
2018-09-09T19:11:57.738Z,2.83
2018-09-09T19:17:00.755Z,3.17
2018-09-09T19:22:03.783Z,2.63
2018-09-09T19:27:06.800Z,3.30
2018-09-09T19:32:09.845Z,3.30
2018-09-09T19:37:12.996Z,4.20
2018-09-09T19:42:16.091Z,3.33
2018-09-09T19:47:19.213Z,4.87
2018-09-09T19:52:22.199Z,3.80
2018-09-09T19:57:26.105Z,4.70
2018-09-09T20:02:29.432Z,4.97
2018-09-09T20:07:32.861Z,5.17
2018-09-09T20:12:35.909Z,3.93
2018-09-09T20:17:39.056Z,4.50
2018-09-09T20:22:42.103Z,3.93
2018-09-09T20:27:45.110Z,4.07
2018-09-09T20:32:48.151Z,4.73
2018-09-09T20:37:51.183Z,4.67
2018-09-09T20:42:54.288Z,4.20
2018-09-09T20:47:57.393Z,4.00
2018-09-09T20:53:00.499Z,4.20
2018-09-09T20:58:03.603Z,4.53
2018-09-09T21:03:06.707Z,4.23
2018-09-09T21:08:09.731Z,4.70
2018-09-09T21:13:12.752Z,5.27
2018-09-09T21:18:15.827Z,5.70
2018-09-09T21:23:18.876Z,4.80
2018-09-09T21:28:21.910Z,5.10
2018-09-09T21:33:25.947Z,5.30
2018-09-09T21:38:28.994Z,5.00
2018-09-09T21:43:32.048Z,4.33
2018-09-09T21:48:35.103Z,5.20
2018-09-09T21:53:38.105Z,5.63
2018-09-09T21:58:41.098Z,4.80
2018-09-09T22:03:44.115Z,4.00
2018-09-09T22:08:47.872Z,4.20
2018-09-09T22:13:50.931Z,4.20
2018-09-09T22:18:53.948Z,4.17
2018-09-09T22:23:57.073Z,4.23
2018-09-09T22:29:00.084Z,4.60
2018-09-09T22:34:03.076Z,4.07
2018-09-09T22:39:08.033Z,4.77
2018-09-09T22:44:12.132Z,5.13
2018-09-09T22:49:15.170Z,4.70
2018-09-09T22:54:18.170Z,4.30
2018-09-09T22:59:21.177Z,4.40
2018-09-09T23:04:24.154Z,4.07
2018-09-09T23:09:27.515Z,4.27
2018-09-09T23:14:30.507Z,5.67
2018-09-09T23:19:33.535Z,5.10
2018-09-09T23:24:36.567Z,4.90
2018-09-09T23:29:39.675Z,4.50
2018-09-09T23:34:42.699Z,4.20
2018-09-09T23:39:45.748Z,4.77
2018-09-09T23:44:48.795Z,4.30
2018-09-09T23:49:51.798Z,4.30
2018-09-09T23:54:54.838Z,4.87
2018-09-09T23:59:57.838Z,5.23
